Time;durP1;ratioP1;P1;durP2;ratioP2;P2;SDS_P1;SDS_P2;PMS_P1;PMS_P2;Temp;Humidity;BMP_temperature;BMP_pressure;BME280_temperature;BME280_humidity;BME280_pressure;Samples;Min_cycle;Max_cycle;Signal;HPM_P1;HPM_P2
2022/12/30 00:01:00;;;;;;;29.13;20.13;;;;;;;;;;6281088;28;20171;-73
2022/12/30 00:04:02;;;;;;;30.55;20.73;;;;;;;;;;6280843;28;20094;-72
2022/12/30 00:07:05;;;;;;;29.77;19.55;;;;;;;;;;6278101;28;20049;-72
2022/12/30 00:10:07;;;;;;;26.47;18.67;;;;;;;;;;6267547;28;20065;-73
2022/12/30 00:33:27;;;;;;;36.58;22.02;;;;;;;;;;6152369;28;20051;-72
2022/12/30 00:36:28;;;;;;;;;;;;;;;;;;6153209;28;20048;-74
2022/12/30 00:39:31;;;;;;;36.63;23.17;;;;;;;;;;6151687;28;20092;-73
2022/12/30 00:45:53;;;;;;;42.17;26.15;;;;;;;;;;6150260;28;20568;-73
2022/12/30 00:58:55;;;;;;;49.85;29.00;;;;;;;;;;6246580;28;20057;-74
2022/12/30 01:01:56;;;;;;;54.35;30.15;;;;;;;;;;6249516;28;20053;-73
2022/12/30 01:04:58;;;;;;;52.65;28.15;;;;;;;;;;6253603;28;20053;-75
2022/12/30 01:08:00;;;;;;;58.20;29.25;;;;;;;;;;6254122;28;20048;-73
2022/12/30 01:11:07;;;;;;;58.08;29.77;;;;;;;;;;6253842;28;20111;-74
2022/12/30 01:14:08;;;;;;;57.53;30.63;;;;;;;;;;6255982;28;20311;-74
2022/12/30 01:17:12;;;;;;;52.08;29.17;;;;;;;;;;6255562;28;20068;-74
2022/12/30 01:20:14;;;;;;;66.40;34.47;;;;;;;;;;6254766;28;20095;-73
2022/12/30 01:23:15;;;;;;;62.83;31.85;;;;;;;;;;6255803;28;20257;-73
2022/12/30 01:26:18;;;;;;;66.28;32.47;;;;;;;;;;6252704;28;20057;-73
2022/12/30 01:29:23;;;;;;;61.03;32.60;;;;;;;;;;6252501;28;20041;-73
2022/12/30 01:32:24;;;;;;;62.70;32.08;;;;;;;;;;6250832;28;20057;-72
2022/12/30 01:35:26;;;;;;;64.68;32.20;;;;;;;;;;6253779;28;20051;-76
2022/12/30 01:38:29;;;;;;;63.72;32.00;;;;;;;;;;6254243;28;20049;-76
2022/12/30 01:41:32;;;;;;;64.28;32.00;;;;;;;;;;6247214;28;20403;-75
2022/12/30 01:44:59;;;;;;;60.22;31.95;;;;;;;;;;6255057;28;20061;-74
2022/12/30 01:48:04;;;;;;;55.40;31.27;;;;;;;;;;6255072;28;20041;-70
2022/12/30 01:51:09;;;;;;;58.67;32.47;;;;;;;;;;6271263;28;20076;-73
2022/12/30 01:54:11;;;;;;;61.10;32.03;;;;;;;;;;6277302;28;20317;-72
2022/12/30 01:57:14;;;;;;;66.03;33.08;;;;;;;;;;6275452;28;20328;-73
2022/12/30 02:00:16;;;;;;;64.60;33.63;;;;;;;;;;6279369;28;20060;-73
2022/12/30 02:03:18;;;;;;;61.45;31.90;;;;;;;;;;6275151;28;20048;-70
2022/12/30 02:06:22;;;;;;;61.17;31.00;;;;;;;;;;6274831;28;20091;-70
2022/12/30 02:09:24;;;;;;;61.03;31.58;;;;;;;;;;6277860;28;20053;-73
2022/12/30 02:12:27;;;;;;;54.20;29.60;;;;;;;;;;6275990;28;20040;-72
2022/12/30 02:15:34;;;;;;;52.72;29.13;;;;;;;;;;6278721;28;20340;-73
2022/12/30 02:18:44;;;;;;;51.97;28.00;;;;;;;;;;6278932;28;20049;-75
2022/12/30 02:22:06;;;;;;;52.78;29.63;;;;;;;;;;6278402;28;20349;-73
2022/12/30 02:25:26;;;;;;;49.95;27.90;;;;;;;;;;6273677;28;20045;-73
2022/12/30 02:29:02;;;;;;;52.80;27.70;;;;;;;;;;6278908;28;20110;-73
2022/12/30 02:32:09;;;;;;;52.20;28.13;;;;;;;;;;6276417;28;20236;-73
2022/12/30 02:35:16;;;;;;;48.50;28.38;;;;;;;;;;6278280;28;20040;-72
2022/12/30 02:38:24;;;;;;;49.28;27.30;;;;;;;;;;6280189;28;20098;-74
2022/12/30 02:44:51;;;;;;;46.20;26.75;;;;;;;;;;6283667;28;20044;-73
2022/12/30 02:47:56;;;;;;;50.55;27.73;;;;;;;;;;6282330;28;20057;-73
2022/12/30 02:54:21;;;;;;;52.33;28.15;;;;;;;;;;6256514;28;20055;-73
2022/12/30 02:57:25;;;;;;;47.10;27.50;;;;;;;;;;6283833;28;20048;-73
2022/12/30 03:03:58;;;;;;;;;;;;;;;;;;6275333;28;20068;-76
2022/12/30 03:07:12;;;;;;;47.60;25.70;;;;;;;;;;6274889;28;19962;-72
2022/12/30 03:13:40;;;;;;;44.83;25.05;;;;;;;;;;6277459;28;20333;-72
2022/12/30 03:16:45;;;;;;;44.28;26.48;;;;;;;;;;6274302;28;20363;-73
2022/12/30 03:19:51;;;;;;;49.10;26.30;;;;;;;;;;6274967;28;20202;-76
2022/12/30 03:29:36;;;;;;;42.90;23.65;;;;;;;;;;6277341;28;20056;-75
2022/12/30 03:32:38;;;;;;;48.42;24.83;;;;;;;;;;6277982;28;20040;-73
2022/12/30 03:35:46;;;;;;;41.72;23.45;;;;;;;;;;6273941;28;20252;-73
2022/12/30 03:38:52;;;;;;;43.67;23.90;;;;;;;;;;6271775;28;20053;-73
2022/12/30 03:41:54;;;;;;;42.40;23.70;;;;;;;;;;6276014;28;20056;-73
2022/12/30 03:44:56;;;;;;;37.38;23.88;;;;;;;;;;6274143;28;20052;-73
2022/12/30 03:47:58;;;;;;;38.92;24.52;;;;;;;;;;6272942;28;20107;-72
2022/12/30 03:51:01;;;;;;;38.05;22.95;;;;;;;;;;6272544;28;20095;-72
2022/12/30 03:54:03;;;;;;;39.90;23.80;;;;;;;;;;6276441;28;20041;-73
2022/12/30 03:57:04;;;;;;;38.17;21.15;;;;;;;;;;6275603;28;20045;-69
2022/12/30 04:00:08;;;;;;;32.47;19.95;;;;;;;;;;6276746;28;20053;-73
2022/12/30 04:03:10;;;;;;;35.45;20.95;;;;;;;;;;6275833;28;20116;-75
2022/12/30 04:06:13;;;;;;;33.42;20.48;;;;;;;;;;6276546;28;20048;-75
2022/12/30 04:09:15;;;;;;;33.00;20.30;;;;;;;;;;6275720;28;20059;-75
2022/12/30 04:12:17;;;;;;;33.92;21.20;;;;;;;;;;6276374;28;20086;-75
2022/12/30 04:15:18;;;;;;;34.60;21.77;;;;;;;;;;6275077;28;20117;-72
2022/12/30 04:18:20;;;;;;;31.98;19.25;;;;;;;;;;6273610;28;20056;-75
2022/12/30 04:21:23;;;;;;;34.55;22.10;;;;;;;;;;6274432;28;20053;-76
2022/12/30 04:24:25;;;;;;;31.98;19.85;;;;;;;;;;6273459;28;20057;-73
2022/12/30 04:27:27;;;;;;;32.35;20.90;;;;;;;;;;6274027;28;20283;-73
2022/12/30 04:30:28;;;;;;;28.60;19.40;;;;;;;;;;6276218;28;20056;-73
2022/12/30 04:33:30;;;;;;;33.72;21.33;;;;;;;;;;6275228;28;20067;-70
2022/12/30 04:36:33;;;;;;;29.20;19.70;;;;;;;;;;6273512;28;20218;-73
2022/12/30 04:39:35;;;;;;;33.25;20.45;;;;;;;;;;6271936;28;20052;-76
2022/12/30 04:42:36;;;;;;;35.10;21.73;;;;;;;;;;6275465;28;20094;-73
2022/12/30 04:45:38;;;;;;;31.90;20.67;;;;;;;;;;6279582;28;20041;-74
2022/12/30 04:48:40;;;;;;;32.78;21.75;;;;;;;;;;6278257;28;20098;-73
2022/12/30 04:51:43;;;;;;;32.20;20.45;;;;;;;;;;6279709;28;20045;-73
2022/12/30 04:54:44;;;;;;;33.28;21.10;;;;;;;;;;6277561;28;20045;-73
2022/12/30 04:57:46;;;;;;;31.67;20.45;;;;;;;;;;6277900;28;20052;-73
2022/12/30 05:00:48;;;;;;;30.65;19.75;;;;;;;;;;6278255;28;20045;-73
2022/12/30 05:03:50;;;;;;;30.65;20.65;;;;;;;;;;6278466;28;20053;-70
2022/12/30 05:06:53;;;;;;;32.58;19.88;;;;;;;;;;6275621;28;20044;-76
2022/12/30 05:09:55;;;;;;;33.00;21.00;;;;;;;;;;6277298;28;20340;-72
2022/12/30 05:12:56;;;;;;;34.15;20.02;;;;;;;;;;6279355;28;20041;-71
2022/12/30 05:15:58;;;;;;;34.33;20.38;;;;;;;;;;6276943;28;20280;-69
2022/12/30 05:18:59;;;;;;;34.03;21.25;;;;;;;;;;6277958;28;20048;-73
2022/12/30 05:22:02;;;;;;;29.65;19.83;;;;;;;;;;6276576;28;20041;-72
2022/12/30 05:28:24;;;;;;;34.45;20.83;;;;;;;;;;6274962;28;20112;-75
2022/12/30 05:31:25;;;;;;;32.70;21.17;;;;;;;;;;6278418;28;20279;-73
2022/12/30 05:34:27;;;;;;;33.67;21.30;;;;;;;;;;6278808;28;20060;-73
2022/12/30 05:37:30;;;;;;;31.00;20.65;;;;;;;;;;6278209;28;20041;-69
2022/12/30 05:40:32;;;;;;;33.85;21.60;;;;;;;;;;6277902;28;20041;-72
2022/12/30 05:43:33;;;;;;;38.05;23.02;;;;;;;;;;6274901;28;20044;-74
2022/12/30 05:46:36;;;;;;;39.45;24.27;;;;;;;;;;6278166;28;20057;-73
2022/12/30 05:49:37;;;;;;;47.00;25.80;;;;;;;;;;6276532;28;20087;-75
2022/12/30 05:52:40;;;;;;;42.80;25.67;;;;;;;;;;6277663;28;20394;-71
2022/12/30 05:55:42;;;;;;;44.47;25.27;;;;;;;;;;6279540;28;20218;-74
2022/12/30 05:58:44;;;;;;;44.03;25.85;;;;;;;;;;6273265;28;20083;-73
2022/12/30 06:01:45;;;;;;;42.20;25.30;;;;;;;;;;6279124;28;20061;-74
2022/12/30 06:04:47;;;;;;;47.63;26.50;;;;;;;;;;6278022;28;20049;-74
2022/12/30 06:07:50;;;;;;;54.05;26.92;;;;;;;;;;6279581;28;20048;-74
2022/12/30 06:10:52;;;;;;;50.03;27.30;;;;;;;;;;6282054;28;20052;-75
2022/12/30 06:13:53;;;;;;;49.17;26.58;;;;;;;;;;6280472;28;20053;-74
2022/12/30 06:16:55;;;;;;;51.60;29.50;;;;;;;;;;6258938;28;20049;-73
2022/12/30 06:19:57;;;;;;;48.88;27.42;;;;;;;;;;6245848;28;20045;-74
2022/12/30 06:23:00;;;;;;;53.38;27.92;;;;;;;;;;6246315;28;20053;-74
2022/12/30 06:26:01;;;;;;;49.25;27.77;;;;;;;;;;6259075;28;20318;-74
2022/12/30 06:29:03;;;;;;;52.30;28.58;;;;;;;;;;6272242;28;20045;-74
2022/12/30 06:32:05;;;;;;;54.95;28.67;;;;;;;;;;6275902;28;20209;-74
2022/12/30 06:35:07;;;;;;;61.83;30.55;;;;;;;;;;6271059;28;20099;-73
2022/12/30 06:38:10;;;;;;;52.88;28.50;;;;;;;;;;6252803;28;20048;-74
2022/12/30 06:41:12;;;;;;;56.55;28.52;;;;;;;;;;6254937;28;20053;-73
2022/12/30 06:44:14;;;;;;;54.47;28.33;;;;;;;;;;6251121;28;20418;-74
2022/12/30 06:47:16;;;;;;;61.53;31.90;;;;;;;;;;6252303;28;20041;-74
2022/12/30 06:50:17;;;;;;;55.58;28.60;;;;;;;;;;6258601;28;20049;-74
2022/12/30 06:53:20;;;;;;;60.38;31.40;;;;;;;;;;6257690;28;20403;-74
2022/12/30 06:56:22;;;;;;;56.45;29.85;;;;;;;;;;6269575;28;20053;-74
2022/12/30 06:59:24;;;;;;;54.75;29.13;;;;;;;;;;6273479;28;20101;-74
2022/12/30 07:02:26;;;;;;;62.67;31.20;;;;;;;;;;6248178;28;20088;-74
2022/12/30 07:05:27;;;;;;;55.08;30.15;;;;;;;;;;6244605;28;20336;-73
2022/12/30 07:08:30;;;;;;;54.85;28.30;;;;;;;;;;6245801;28;20054;-75
2022/12/30 07:11:32;;;;;;;59.50;29.58;;;;;;;;;;6244339;28;20053;-74
2022/12/30 07:14:34;;;;;;;59.42;28.83;;;;;;;;;;6248110;28;20276;-74
2022/12/30 07:17:35;;;;;;;62.25;27.90;;;;;;;;;;6245132;28;20049;-73
2022/12/30 07:20:38;;;;;;;62.60;30.50;;;;;;;;;;6241124;28;20061;-75
2022/12/30 07:23:40;;;;;;;58.97;29.35;;;;;;;;;;6246099;28;20085;-74
2022/12/30 07:26:42;;;;;;;66.40;34.70;;;;;;;;;;6245686;28;20104;-74
2022/12/30 07:29:44;;;;;;;60.90;30.77;;;;;;;;;;6243696;28;20064;-75
2022/12/30 07:32:46;;;;;;;62.17;30.35;;;;;;;;;;6248599;28;20057;-73
2022/12/30 07:35:48;;;;;;;53.25;29.85;;;;;;;;;;6247103;28;20062;-74
2022/12/30 07:38:51;;;;;;;55.67;27.92;;;;;;;;;;6248579;28;20353;-77
2022/12/30 07:41:52;;;;;;;60.40;30.25;;;;;;;;;;6247017;28;20147;-76
2022/12/30 07:44:54;;;;;;;63.00;30.45;;;;;;;;;;6242380;28;20053;-76
2022/12/30 07:47:58;;;;;;;63.45;30.83;;;;;;;;;;6243303;28;20117;-76
2022/12/30 07:51:00;;;;;;;;;;;;;;;;;;6249311;28;20048;-75
2022/12/30 07:54:03;;;;;;;57.90;28.27;;;;;;;;;;6251720;28;19935;-75
2022/12/30 07:57:05;;;;;;;59.55;30.05;;;;;;;;;;6251077;28;20408;-76
2022/12/30 08:00:09;;;;;;;62.80;30.50;;;;;;;;;;6249690;28;20048;-72
2022/12/30 08:03:11;;;;;;;63.35;30.33;;;;;;;;;;6250279;28;20053;-76
2022/12/30 08:06:14;;;;;;;51.55;28.40;;;;;;;;;;6253512;28;20357;-76
2022/12/30 08:09:17;;;;;;;53.72;30.23;;;;;;;;;;6250225;28;20045;-75
2022/12/30 08:12:18;;;;;;;59.03;30.00;;;;;;;;;;6252186;28;20115;-75
2022/12/30 08:15:20;;;;;;;60.05;30.52;;;;;;;;;;6252469;28;20049;-75
2022/12/30 08:18:22;;;;;;;55.10;29.15;;;;;;;;;;6252637;28;20046;-75
2022/12/30 08:21:23;;;;;;;49.53;27.23;;;;;;;;;;6256625;28;20053;-72
2022/12/30 08:24:26;;;;;;;48.80;26.92;;;;;;;;;;6256995;28;20131;-74
2022/12/30 08:27:28;;;;;;;44.65;25.42;;;;;;;;;;6252451;28;20069;-74
2022/12/30 08:30:30;;;;;;;46.97;25.48;;;;;;;;;;6249952;28;20049;-73
2022/12/30 08:33:32;;;;;;;44.42;26.27;;;;;;;;;;6246509;28;20087;-73
2022/12/30 08:36:33;;;;;;;46.50;26.02;;;;;;;;;;6254477;28;20183;-74
2022/12/30 08:39:36;;;;;;;43.78;24.85;;;;;;;;;;6253299;28;20049;-74
2022/12/30 08:42:38;;;;;;;47.35;25.85;;;;;;;;;;6257254;28;20281;-74
2022/12/30 08:45:40;;;;;;;48.47;26.90;;;;;;;;;;6254604;28;20264;-73
2022/12/30 08:48:42;;;;;;;41.55;25.45;;;;;;;;;;6249134;28;20049;-73
2022/12/30 08:51:43;;;;;;;48.80;26.60;;;;;;;;;;6276538;28;20057;-74
2022/12/30 08:54:46;;;;;;;45.45;25.92;;;;;;;;;;6261846;28;20808;-73
2022/12/30 08:57:48;;;;;;;45.28;25.85;;;;;;;;;;6255037;28;20045;-73
2022/12/30 09:00:50;;;;;;;44.90;25.45;;;;;;;;;;6253730;28;20096;-74
2022/12/30 09:03:52;;;;;;;48.38;25.90;;;;;;;;;;6256812;28;20053;-73
2022/12/30 09:06:53;;;;;;;44.28;25.30;;;;;;;;;;6274690;28;20237;-74
2022/12/30 09:09:57;;;;;;;47.72;25.52;;;;;;;;;;6281239;28;20044;-73
2022/12/30 09:12:58;;;;;;;50.38;26.05;;;;;;;;;;6277909;28;20206;-74
2022/12/30 09:16:00;;;;;;;51.20;27.25;;;;;;;;;;6283491;28;20044;-74
2022/12/30 09:19:02;;;;;;;48.72;27.77;;;;;;;;;;6280438;28;20125;-74
2022/12/30 09:22:03;;;;;;;46.72;27.10;;;;;;;;;;6281581;28;20040;-74
2022/12/30 09:25:08;;;;;;;48.80;27.13;;;;;;;;;;6276422;28;20056;-74
2022/12/30 09:28:09;;;;;;;49.88;27.33;;;;;;;;;;6252885;28;20045;-74
2022/12/30 09:31:11;;;;;;;50.10;27.00;;;;;;;;;;6255478;28;20321;-74
2022/12/30 09:34:13;;;;;;;41.45;26.00;;;;;;;;;;6249800;28;20053;-73
2022/12/30 09:37:15;;;;;;;49.45;27.50;;;;;;;;;;6254381;28;20115;-71
2022/12/30 09:40:20;;;;;;;41.08;25.77;;;;;;;;;;6251661;28;20088;-73
2022/12/30 09:43:29;;;;;;;38.58;24.73;;;;;;;;;;6247893;28;20049;-74
2022/12/30 09:46:36;;;;;;;39.20;24.45;;;;;;;;;;6254031;28;20053;-73
2022/12/30 09:49:42;;;;;;;39.95;23.95;;;;;;;;;;6254517;28;20052;-71
2022/12/30 09:52:49;;;;;;;38.15;23.23;;;;;;;;;;6254345;28;20050;-74
2022/12/30 09:55:55;;;;;;;39.90;24.98;;;;;;;;;;6256108;28;20053;-74
2022/12/30 09:59:01;;;;;;;40.72;25.27;;;;;;;;;;6270075;28;20056;-74
2022/12/30 10:02:16;;;;;;;44.53;25.00;;;;;;;;;;6266343;28;20221;-74
2022/12/30 10:05:37;;;;;;;40.85;24.10;;;;;;;;;;6245153;28;20107;-74
2022/12/30 10:08:59;;;;;;;40.53;25.73;;;;;;;;;;6249061;28;20049;-72
2022/12/30 10:12:15;;;;;;;47.85;25.65;;;;;;;;;;6254940;28;20190;-74
2022/12/30 10:15:25;;;;;;;40.97;24.67;;;;;;;;;;6255305;28;20049;-74
2022/12/30 10:18:56;;;;;;;41.20;25.08;;;;;;;;;;6267922;28;20040;-74
2022/12/30 10:22:02;;;;;;;38.42;24.17;;;;;;;;;;6273855;28;20102;-73
2022/12/30 10:25:20;;;;;;;40.38;23.77;;;;;;;;;;6275589;28;20339;-74
2022/12/30 10:28:30;;;;;;;39.20;24.25;;;;;;;;;;6277269;28;20068;-74
2022/12/30 10:31:35;;;;;;;41.80;25.45;;;;;;;;;;6278129;28;20055;-73
2022/12/30 10:34:37;;;;;;;39.60;25.45;;;;;;;;;;6275556;28;20264;-72
2022/12/30 10:37:39;;;;;;;36.38;23.13;;;;;;;;;;6277563;28;20080;-74
2022/12/30 10:40:50;;;;;;;39.50;24.63;;;;;;;;;;6277390;28;20045;-74
2022/12/30 10:44:02;;;;;;;38.90;24.63;;;;;;;;;;6278029;28;20071;-74
2022/12/30 10:47:17;;;;;;;44.63;25.88;;;;;;;;;;6279256;28;20052;-74
2022/12/30 10:50:26;;;;;;;41.70;25.38;;;;;;;;;;6278462;28;20106;-73
2022/12/30 10:53:28;;;;;;;41.50;24.63;;;;;;;;;;6276421;28;20044;-72
2022/12/30 10:56:31;;;;;;;48.70;27.95;;;;;;;;;;6276581;28;20118;-74
2022/12/30 10:59:35;;;;;;;46.77;26.60;;;;;;;;;;6278310;28;20268;-73
2022/12/30 11:02:39;;;;;;;44.05;25.13;;;;;;;;;;6278951;28;20056;-74
2022/12/30 11:05:40;;;;;;;44.58;26.00;;;;;;;;;;6275970;28;20044;-73
2022/12/30 11:08:43;;;;;;;43.35;26.02;;;;;;;;;;6276875;28;20549;-72
2022/12/30 11:15:12;;;;;;;42.92;25.73;;;;;;;;;;6278770;28;20040;-74
2022/12/30 11:18:15;;;;;;;41.35;25.33;;;;;;;;;;6278261;28;20071;-73
2022/12/30 11:21:24;;;;;;;43.40;26.77;;;;;;;;;;6275803;28;20052;-74
2022/12/30 11:24:26;;;;;;;41.58;26.15;;;;;;;;;;6275010;28;20053;-74
2022/12/30 11:27:40;;;;;;;39.88;26.20;;;;;;;;;;6276444;28;20279;-74
2022/12/30 11:30:54;;;;;;;45.10;28.10;;;;;;;;;;6276967;28;20044;-73
2022/12/30 11:33:57;;;;;;;45.25;27.85;;;;;;;;;;6278186;28;20048;-74
2022/12/30 11:36:59;;;;;;;44.55;27.58;;;;;;;;;;6277688;28;20239;-74
2022/12/30 11:40:31;;;;;;;43.65;27.63;;;;;;;;;;6276747;28;20045;-74
2022/12/30 11:43:35;;;;;;;44.58;27.50;;;;;;;;;;6275112;28;20056;-74
2022/12/30 11:46:39;;;;;;;48.88;29.85;;;;;;;;;;6276269;28;20048;-74
2022/12/30 11:49:48;;;;;;;49.63;29.63;;;;;;;;;;6274957;28;20041;-74
2022/12/30 11:52:51;;;;;;;50.78;29.42;;;;;;;;;;6275987;28;20329;-74
2022/12/30 11:55:55;;;;;;;50.30;29.35;;;;;;;;;;6274435;28;20052;-74
2022/12/30 11:59:08;;;;;;;48.58;29.45;;;;;;;;;;6274355;28;20416;-74
2022/12/30 12:02:18;;;;;;;53.03;30.23;;;;;;;;;;6276778;28;20210;-74
2022/12/30 12:05:29;;;;;;;55.45;31.05;;;;;;;;;;6275105;28;20044;-74
2022/12/30 12:08:34;;;;;;;54.42;31.17;;;;;;;;;;6276846;28;20053;-71
2022/12/30 12:11:41;;;;;;;48.83;30.58;;;;;;;;;;6276998;28;20359;-74
2022/12/30 12:15:02;;;;;;;58.03;31.60;;;;;;;;;;6273332;28;20748;-73
2022/12/30 12:18:10;;;;;;;53.05;30.40;;;;;;;;;;6273170;28;20045;-73
2022/12/30 12:21:19;;;;;;;57.53;31.13;;;;;;;;;;6277002;28;20045;-74
2022/12/30 12:24:23;;;;;;;58.42;32.15;;;;;;;;;;6278154;28;20240;-73
2022/12/30 12:27:27;;;;;;;55.38;30.42;;;;;;;;;;6276064;28;20048;-73
2022/12/30 12:30:42;;;;;;;56.65;31.17;;;;;;;;;;6275167;28;20324;-70
2022/12/30 12:33:47;;;;;;;52.90;30.58;;;;;;;;;;6272494;28;20045;-74
2022/12/30 12:36:57;;;;;;;54.55;31.35;;;;;;;;;;6275901;28;20102;-73
2022/12/30 12:40:15;;;;;;;52.20;29.75;;;;;;;;;;6278112;28;20210;-73
2022/12/30 12:43:21;;;;;;;53.95;32.15;;;;;;;;;;6272319;28;20046;-74
2022/12/30 12:46:44;;;;;;;58.00;32.53;;;;;;;;;;6275876;28;20199;-74
2022/12/30 12:50:05;;;;;;;59.30;31.85;;;;;;;;;;6274279;28;20669;-72
2022/12/30 12:53:23;;;;;;;58.35;32.60;;;;;;;;;;6272808;28;20166;-74
2022/12/30 12:56:54;;;;;;;58.80;32.13;;;;;;;;;;6277348;28;20045;-74
2022/12/30 13:00:08;;;;;;;60.13;32.00;;;;;;;;;;6276467;28;20028;-74
2022/12/30 13:03:38;;;;;;;61.53;32.22;;;;;;;;;;6276183;28;20215;-73
2022/12/30 13:06:46;;;;;;;60.00;32.50;;;;;;;;;;6279751;28;20052;-71
2022/12/30 13:09:59;;;;;;;57.22;32.53;;;;;;;;;;6279040;28;20084;-74
2022/12/30 13:13:07;;;;;;;67.07;33.10;;;;;;;;;;6282418;28;20052;-74
2022/12/30 13:16:15;;;;;;;58.33;32.33;;;;;;;;;;6276969;28;20841;-69
2022/12/30 13:19:19;;;;;;;58.15;32.60;;;;;;;;;;6279385;28;20044;-74
2022/12/30 13:22:25;;;;;;;59.97;31.98;;;;;;;;;;6254006;28;20051;-74
2022/12/30 13:25:30;;;;;;;58.13;33.20;;;;;;;;;;6278160;28;20044;-74
2022/12/30 13:28:33;;;;;;;56.92;32.33;;;;;;;;;;6278961;28;20057;-74
2022/12/30 13:31:42;;;;;;;61.65;33.15;;;;;;;;;;6279478;28;20336;-74
2022/12/30 13:34:52;;;;;;;59.08;34.05;;;;;;;;;;6280051;28;20237;-74
2022/12/30 13:37:59;;;;;;;57.03;33.17;;;;;;;;;;6281794;28;20167;-74
2022/12/30 13:41:15;;;;;;;59.92;33.65;;;;;;;;;;6276101;28;20060;-73
2022/12/30 13:44:18;;;;;;;60.08;32.15;;;;;;;;;;6278174;28;20149;-74
2022/12/30 13:47:39;;;;;;;58.53;33.78;;;;;;;;;;6272855;28;20049;-74
2022/12/30 13:50:42;;;;;;;57.28;32.55;;;;;;;;;;6280763;28;20045;-70
2022/12/30 13:53:45;;;;;;;59.13;31.98;;;;;;;;;;6278603;28;20048;-73
2022/12/30 13:56:49;;;;;;;65.20;31.95;;;;;;;;;;6279329;28;20344;-73
2022/12/30 14:00:08;;;;;;;58.30;32.30;;;;;;;;;;6279329;28;20328;-74
2022/12/30 14:03:35;;;;;;;58.92;33.10;;;;;;;;;;6279110;28;20055;-74
2022/12/30 14:06:42;;;;;;;58.17;29.52;;;;;;;;;;6283155;28;20041;-74
2022/12/30 14:10:23;;;;;;;60.42;32.50;;;;;;;;;;6278444;28;20059;-74
2022/12/30 14:13:37;;;;;;;61.35;32.65;;;;;;;;;;6278252;28;20056;-71
2022/12/30 14:16:46;;;;;;;60.47;32.75;;;;;;;;;;6276980;28;20330;-74
2022/12/30 14:19:51;;;;;;;58.83;32.10;;;;;;;;;;6278591;28;20064;-74
2022/12/30 14:22:58;;;;;;;60.22;34.30;;;;;;;;;;6276170;28;20055;-74
2022/12/30 14:26:49;;;;;;;62.45;33.33;;;;;;;;;;6276668;28;20438;-74
2022/12/30 14:30:01;;;;;;;56.95;31.65;;;;;;;;;;6281787;28;20044;-74
2022/12/30 14:33:17;;;;;;;58.30;30.70;;;;;;;;;;6279084;28;20052;-71
2022/12/30 14:36:21;;;;;;;57.40;30.50;;;;;;;;;;6279230;28;21886;-74
2022/12/30 14:39:22;;;;;;;61.35;31.75;;;;;;;;;;6277678;28;20057;-74
2022/12/30 14:42:26;;;;;;;57.72;30.90;;;;;;;;;;6279827;28;20049;-73
2022/12/30 14:45:29;;;;;;;64.60;33.08;;;;;;;;;;6276818;28;20091;-73
2022/12/30 14:48:59;;;;;;;59.67;32.60;;;;;;;;;;6279250;28;20049;-74
2022/12/30 14:52:05;;;;;;;61.50;32.92;;;;;;;;;;6275114;28;20352;-74
2022/12/30 14:55:11;;;;;;;58.10;32.38;;;;;;;;;;6275832;28;20053;-73
2022/12/30 14:58:21;;;;;;;54.67;32.20;;;;;;;;;;6274198;28;20052;-71
2022/12/30 15:01:24;;;;;;;54.05;30.40;;;;;;;;;;6275932;28;20225;-73
2022/12/30 15:04:26;;;;;;;61.70;30.50;;;;;;;;;;6277691;28;20103;-74
2022/12/30 15:07:32;;;;;;;60.22;32.20;;;;;;;;;;6276831;28;20045;-74
2022/12/30 15:10:37;;;;;;;60.95;32.92;;;;;;;;;;6275584;28;20083;-74
2022/12/30 15:13:41;;;;;;;61.05;33.22;;;;;;;;;;6267687;28;20073;-74
2022/12/30 15:16:44;;;;;;;57.05;31.60;;;;;;;;;;6275078;28;20071;-70
2022/12/30 15:19:46;;;;;;;57.10;31.95;;;;;;;;;;6276798;28;20049;-74
2022/12/30 15:22:48;;;;;;;61.80;32.83;;;;;;;;;;6277198;28;20384;-73
2022/12/30 15:25:58;;;;;;;64.57;33.85;;;;;;;;;;6274137;28;20053;-74
2022/12/30 15:28:59;;;;;;;59.65;34.20;;;;;;;;;;6274612;28;20049;-74
2022/12/30 15:32:05;;;;;;;61.28;33.67;;;;;;;;;;6276447;28;20044;-72
2022/12/30 15:35:09;;;;;;;63.85;32.72;;;;;;;;;;6276576;28;20056;-76
2022/12/30 15:38:12;;;;;;;59.60;30.33;;;;;;;;;;6273469;28;20155;-77
2022/12/30 15:41:14;;;;;;;55.97;30.75;;;;;;;;;;6271141;28;20237;-76
2022/12/30 15:44:19;;;;;;;59.88;32.40;;;;;;;;;;6275755;28;20057;-75
2022/12/30 15:47:25;;;;;;;56.00;31.55;;;;;;;;;;6272518;28;20098;-72
2022/12/30 15:50:32;;;;;;;58.38;31.92;;;;;;;;;;6273676;28;20053;-76
2022/12/30 15:53:35;;;;;;;57.45;31.98;;;;;;;;;;6274839;28;20084;-75
2022/12/30 15:56:36;;;;;;;60.22;32.10;;;;;;;;;;6274084;28;20059;-74
2022/12/30 15:59:48;;;;;;;63.35;32.97;;;;;;;;;;6277328;28;20044;-75
2022/12/30 16:02:55;;;;;;;60.00;32.33;;;;;;;;;;6276542;28;20053;-75
2022/12/30 16:05:57;;;;;;;55.13;31.52;;;;;;;;;;6277263;28;20120;-74
2022/12/30 16:08:59;;;;;;;58.70;32.00;;;;;;;;;;6275302;28;20083;-76
2022/12/30 16:12:00;;;;;;;60.70;32.40;;;;;;;;;;6271849;28;20049;-76
2022/12/30 16:15:17;;;;;;;60.22;33.88;;;;;;;;;;6273215;28;20049;-75
2022/12/30 16:18:21;;;;;;;61.50;32.15;;;;;;;;;;6270828;28;20045;-75
2022/12/30 16:21:23;;;;;;;58.10;32.22;;;;;;;;;;6277862;28;20205;-75
2022/12/30 16:24:32;;;;;;;55.58;30.63;;;;;;;;;;6275074;28;20324;-75
2022/12/30 16:27:37;;;;;;;54.88;31.33;;;;;;;;;;6274734;28;20120;-70
2022/12/30 16:30:39;;;;;;;55.15;30.83;;;;;;;;;;6275721;28;20045;-73
2022/12/30 16:33:42;;;;;;;55.45;31.60;;;;;;;;;;6275606;28;20378;-76
2022/12/30 16:36:44;;;;;;;62.15;32.20;;;;;;;;;;6277569;28;20052;-71
2022/12/30 16:39:46;;;;;;;58.35;32.00;;;;;;;;;;6281053;28;20044;-75
2022/12/30 16:42:48;;;;;;;56.47;31.63;;;;;;;;;;6279669;28;20052;-74
2022/12/30 16:45:50;;;;;;;66.13;33.92;;;;;;;;;;6279813;28;20095;-73
2022/12/30 16:48:53;;;;;;;56.47;31.52;;;;;;;;;;6275086;28;20332;-75
2022/12/30 16:51:56;;;;;;;62.22;32.90;;;;;;;;;;6277440;28;20332;-75
2022/12/30 16:54:58;;;;;;;59.70;32.63;;;;;;;;;;6279702;28;20352;-76
2022/12/30 16:57:59;;;;;;;60.72;31.73;;;;;;;;;;6280723;28;20060;-75
2022/12/30 17:01:01;;;;;;;56.35;31.65;;;;;;;;;;6277508;28;20048;-75
2022/12/30 17:04:04;;;;;;;69.00;33.72;;;;;;;;;;6278232;28;20048;-75
2022/12/30 17:07:10;;;;;;;70.30;33.23;;;;;;;;;;6279141;28;20116;-73
2022/12/30 17:13:35;;;;;;;65.47;33.15;;;;;;;;;;6281822;28;20045;-73
2022/12/30 17:16:36;;;;;;;;;;;;;;;;;;6284149;28;20252;-73
2022/12/30 17:19:41;;;;;;;67.05;33.42;;;;;;;;;;6284156;28;19931;-73
2022/12/30 17:22:42;;;;;;;;;;;;;;;;;;6284396;28;20045;-74
2022/12/30 17:25:44;;;;;;;69.30;33.42;;;;;;;;;;6283044;28;19929;-73
2022/12/30 17:28:46;;;;;;;65.40;35.15;;;;;;;;;;6283200;28;20110;-73
2022/12/30 17:31:48;;;;;;;70.60;33.83;;;;;;;;;;6286194;28;20057;-75
2022/12/30 17:34:51;;;;;;;79.43;37.88;;;;;;;;;;6283999;28;20106;-73
2022/12/30 17:37:53;;;;;;;61.65;31.42;;;;;;;;;;6282300;28;20095;-74
2022/12/30 17:40:55;;;;;;;68.65;31.25;;;;;;;;;;6281783;28;20052;-76
2022/12/30 17:43:58;;;;;;;69.07;30.75;;;;;;;;;;6282321;28;20043;-71
2022/12/30 17:46:59;;;;;;;63.83;30.20;;;;;;;;;;6281921;28;20259;-74
2022/12/30 17:50:03;;;;;;;61.80;29.88;;;;;;;;;;6280871;28;20053;-75
2022/12/30 17:53:05;;;;;;;60.97;30.40;;;;;;;;;;6283060;28;20664;-74
2022/12/30 17:56:07;;;;;;;63.63;29.70;;;;;;;;;;6281074;28;20347;-75
2022/12/30 17:59:09;;;;;;;62.33;30.63;;;;;;;;;;6282067;28;20102;-75
2022/12/30 18:02:11;;;;;;;63.28;31.52;;;;;;;;;;6281710;28;20099;-75
2022/12/30 18:05:15;;;;;;;62.63;32.00;;;;;;;;;;6280542;28;20041;-75
2022/12/30 18:08:20;;;;;;;66.47;31.25;;;;;;;;;;6282733;28;20044;-76
2022/12/30 18:11:22;;;;;;;70.03;32.20;;;;;;;;;;6280914;28;20049;-75
2022/12/30 18:14:25;;;;;;;71.80;33.38;;;;;;;;;;6283620;28;20136;-73
2022/12/30 18:17:27;;;;;;;71.10;32.05;;;;;;;;;;6282415;28;20113;-76
2022/12/30 18:20:30;;;;;;;69.90;35.40;;;;;;;;;;6280678;28;20052;-74
2022/12/30 18:23:32;;;;;;;66.38;32.70;;;;;;;;;;6279798;28;20041;-73
2022/12/30 18:26:33;;;;;;;63.58;33.08;;;;;;;;;;6280936;28;20274;-73
2022/12/30 18:29:35;;;;;;;73.82;34.28;;;;;;;;;;6279338;28;20321;-74
2022/12/30 18:32:37;;;;;;;74.85;35.53;;;;;;;;;;6281257;28;20056;-72
2022/12/30 18:35:40;;;;;;;80.28;36.85;;;;;;;;;;6280878;28;20049;-74
2022/12/30 18:38:42;;;;;;;78.28;35.63;;;;;;;;;;6278822;28;20049;-74
2022/12/30 18:41:44;;;;;;;78.30;34.58;;;;;;;;;;6281879;28;20055;-74
2022/12/30 18:44:46;;;;;;;83.53;35.60;;;;;;;;;;6281937;28;20052;-73
2022/12/30 18:47:47;;;;;;;71.72;36.30;;;;;;;;;;6278292;28;20067;-76
2022/12/30 18:50:57;;;;;;;80.25;37.92;;;;;;;;;;6277268;28;20052;-75
2022/12/30 18:53:59;;;;;;;84.93;37.15;;;;;;;;;;6277373;28;20049;-73
2022/12/30 18:57:01;;;;;;;80.88;38.65;;;;;;;;;;6276159;28;20236;-74
2022/12/30 19:00:04;;;;;;;84.85;38.80;;;;;;;;;;6276269;28;20045;-77
2022/12/30 19:03:06;;;;;;;85.45;36.55;;;;;;;;;;6279504;28;20065;-76